Time,TemperatureF,DewpointF,PressureIn,WindDirection,WindDirectionDegrees,WindSpeedMPH,WindSpeedGustMPH,Humidity,HourlyPrecipIn,Conditions,Clouds,dailyrainin,SolarRadiationWatts/m^2,SoftwareType,DateUTC
2017-05-29 00:01:00,78.6,25.5,29.68,NNW,343,0.0,2.0,14,0.00,,CLR,0.00,0.00,VWS V14.00,2017-05-29 07:01:00,
2017-05-29 00:06:00,78.1,28.3,29.68,NNE,25,0.0,2.0,16,0.00,,CLR,0.00,0.00,VWS V14.00,2017-05-29 07:06:00,
2017-05-29 00:11:00,77.6,27.9,29.68,NNE,25,0.0,0.0,16,0.00,,CLR,0.00,0.00,VWS V14.00,2017-05-29 07:11:00,
2017-05-29 00:16:00,77.0,28.9,29.68,NNE,25,0.0,0.0,17,0.00,,CLR,0.00,0.00,VWS V14.00,2017-05-29 07:16:00,
2017-05-29 00:21:00,77.0,22.4,29.68,NNE,25,0.0,0.0,13,0.00,,CLR,0.00,0.00,VWS V14.00,2017-05-29 07:21:00,
2017-05-29 00:26:00,77.7,21.1,29.68,NNE,25,0.0,0.0,12,0.00,,CLR,0.00,0.00,VWS V14.00,2017-05-29 07:26:00,
2017-05-29 00:31:00,77.0,20.5,29.68,NNE,25,0.0,0.0,12,0.00,,CLR,0.00,0.00,VWS V14.00,2017-05-29 07:31:00,
2017-05-29 00:36:00,77.7,21.1,29.67,NNE,25,0.0,0.0,12,0.00,,CLR,0.00,0.00,VWS V14.00,2017-05-29 07:36:00,
2017-05-29 00:41:00,77.0,18.5,29.67,NNE,25,0.0,0.0,11,0.00,,CLR,0.00,0.00,VWS V14.00,2017-05-29 07:41:00,
2017-05-29 00:46:00,76.8,20.4,29.67,NNE,25,0.0,0.0,12,0.00,,CLR,0.00,0.00,VWS V14.00,2017-05-29 07:46:00,
2017-05-29 00:51:00,76.7,18.3,29.68,NNE,25,0.0,0.0,11,0.00,,CLR,0.00,0.00,VWS V14.00,2017-05-29 07:51:00,
2017-05-29 00:56:00,75.4,22.9,29.68,NNE,25,0.0,0.0,14,0.00,,CLR,0.00,0.00,VWS V14.00,2017-05-29 07:56:00,
2017-05-29 01:01:00,75.6,23.1,29.68,NNE,25,0.0,0.0,14,0.00,,CLR,0.00,0.00,VWS V14.00,2017-05-29 08:01:00,
2017-05-29 01:06:00,74.7,22.4,29.68,NNE,25,0.0,0.0,14,0.00,,CLR,0.00,0.00,VWS V14.00,2017-05-29 08:06:00,
2017-05-29 01:11:00,75.4,19.3,29.68,NNE,25,0.0,0.0,12,0.00,,CLR,0.00,0.00,VWS V14.00,2017-05-29 08:11:00,
2017-05-29 01:16:00,75.4,19.3,29.68,NNE,25,0.0,0.0,12,0.00,,CLR,0.00,0.00,VWS V14.00,2017-05-29 08:16:00,
2017-05-29 01:21:00,75.3,21.1,29.67,NNE,25,0.0,0.0,13,0.00,,CLR,0.00,0.00,VWS V14.00,2017-05-29 08:21:00,
2017-05-29 01:26:00,75.8,17.6,29.67,NNE,25,3.0,4.0,11,0.00,,CLR,0.00,0.00,VWS V14.00,2017-05-29 08:26:00,
2017-05-29 01:31:00,75.8,23.2,29.67,NNE,25,0.0,0.0,14,0.00,,CLR,0.00,0.00,VWS V14.00,2017-05-29 08:31:00,
2017-05-29 01:36:00,76.3,20.0,29.67,NNE,25,0.0,0.0,12,0.00,,CLR,0.00,0.00,VWS V14.00,2017-05-29 08:36:00,
2017-05-29 01:41:00,75.4,21.2,29.67,NNE,25,0.0,0.0,13,0.00,,CLR,0.00,0.00,VWS V14.00,2017-05-29 08:41:00,
2017-05-29 01:46:00,74.2,22.0,29.67,NNE,25,0.0,0.0,14,0.00,,CLR,0.00,0.00,VWS V14.00,2017-05-29 08:46:00,
2017-05-29 01:51:00,74.9,20.8,29.67,NNE,25,0.0,0.0,13,0.00,,CLR,0.00,0.00,VWS V14.00,2017-05-29 08:51:00,
2017-05-29 01:56:00,75.4,21.2,29.67,NNE,25,0.0,0.0,13,0.00,,CLR,0.00,0.00,VWS V14.00,2017-05-29 08:56:00,
2017-05-29 02:01:00,75.3,21.1,29.67,NNE,25,0.0,0.0,13,0.00,,CLR,0.00,0.00,VWS V14.00,2017-05-29 09:01:00,
2017-05-29 02:06:00,75.4,21.2,29.67,NNE,25,0.0,0.0,13,0.00,,CLR,0.00,0.00,VWS V14.00,2017-05-29 09:06:00,
2017-05-29 02:11:00,75.6,21.3,29.67,NNE,25,0.0,0.0,13,0.00,,CLR,0.00,0.00,VWS V14.00,2017-05-29 09:11:00,
2017-05-29 02:16:00,77.6,19.0,29.67,NNE,25,0.0,0.0,11,0.00,,CLR,0.00,0.00,VWS V14.00,2017-05-29 09:16:00,
2017-05-29 02:21:00,77.4,22.8,29.67,NNE,25,0.0,0.0,13,0.00,,CLR,0.00,0.00,VWS V14.00,2017-05-29 09:21:00,
2017-05-29 02:26:00,76.8,20.4,29.67,NNE,25,0.0,0.0,12,0.00,,CLR,0.00,0.00,VWS V14.00,2017-05-29 09:26:00,
2017-05-29 02:31:00,77.4,20.9,29.67,NNE,25,0.0,0.0,12,0.00,,CLR,0.00,0.00,VWS V14.00,2017-05-29 09:31:00,
2017-05-29 02:36:00,75.8,24.9,29.67,NNE,25,0.0,0.0,15,0.00,,CLR,0.00,0.00,VWS V14.00,2017-05-29 09:36:00,
2017-05-29 02:41:00,73.9,23.4,29.67,NNE,25,0.0,0.0,15,0.00,,CLR,0.00,0.00,VWS V14.00,2017-05-29 09:41:00,
2017-05-29 02:46:00,72.0,28.8,29.67,North,4,0.0,0.0,20,0.00,,CLR,0.00,0.00,VWS V14.00,2017-05-29 09:46:00,
2017-05-29 02:51:00,71.3,28.2,29.67,North,4,0.0,0.0,20,0.00,,CLR,0.00,0.00,VWS V14.00,2017-05-29 09:51:00,
2017-05-29 02:56:00,71.3,28.2,29.67,North,4,0.0,0.0,20,0.00,,CLR,0.00,0.00,VWS V14.00,2017-05-29 09:56:00,
2017-05-29 03:01:00,71.8,27.4,29.67,NNE,28,2.0,3.0,19,0.00,,CLR,0.00,0.00,VWS V14.00,2017-05-29 10:01:00,
2017-05-29 03:06:00,72.1,26.3,29.67,NE,35,3.0,4.0,18,0.00,,CLR,0.00,0.00,VWS V14.00,2017-05-29 10:06:00,
2017-05-29 03:11:00,72.5,25.2,29.67,NE,36,0.0,2.0,17,0.00,,CLR,0.00,0.00,VWS V14.00,2017-05-29 10:11:00,
2017-05-29 03:16:00,73.0,27.0,29.67,NE,36,0.0,0.0,18,0.00,,CLR,0.00,0.00,VWS V14.00,2017-05-29 10:16:00,
2017-05-29 03:21:00,72.7,25.4,29.67,NE,36,1.0,2.0,17,0.00,,CLR,0.00,0.00,VWS V14.00,2017-05-29 10:21:00,
2017-05-29 03:26:00,73.5,23.1,29.67,NE,37,2.0,3.0,15,0.00,,CLR,0.00,0.00,VWS V14.00,2017-05-29 10:26:00,
2017-05-29 03:31:00,74.0,25.0,29.67,NE,37,0.0,0.0,16,0.00,,CLR,0.00,0.00,VWS V14.00,2017-05-29 10:31:00,
2017-05-29 03:36:00,72.8,26.9,29.67,NE,37,0.0,0.0,18,0.00,,CLR,0.00,0.00,VWS V14.00,2017-05-29 10:36:00,
2017-05-29 03:41:00,72.3,27.8,29.67,NE,37,0.0,0.0,19,0.00,,CLR,0.00,0.00,VWS V14.00,2017-05-29 10:41:00,
2017-05-29 03:46:00,72.3,26.5,29.67,NE,37,0.0,0.0,18,0.00,,CLR,0.00,0.00,VWS V14.00,2017-05-29 10:46:00,
2017-05-29 03:51:00,71.5,25.8,29.67,NE,37,0.0,0.0,18,0.00,,CLR,0.00,0.00,VWS V14.00,2017-05-29 10:51:00,
2017-05-29 03:56:00,71.3,25.6,29.67,NE,37,0.0,1.0,18,0.00,,CLR,0.00,0.00,VWS V14.00,2017-05-29 10:56:00,
2017-05-29 04:01:00,70.3,26.1,29.67,NE,37,0.0,0.0,19,0.00,,CLR,0.00,0.00,VWS V14.00,2017-05-29 11:01:00,
2017-05-29 04:06:00,70.8,25.2,29.67,NE,37,0.0,1.0,18,0.00,,CLR,0.00,0.00,VWS V14.00,2017-05-29 11:06:00,
2017-05-29 04:11:00,70.4,28.6,29.67,NE,37,0.0,0.0,21,0.00,,CLR,0.00,0.00,VWS V14.00,2017-05-29 11:11:00,
2017-05-29 04:16:00,70.3,27.4,29.67,NE,37,0.0,0.0,20,0.00,,CLR,0.00,0.00,VWS V14.00,2017-05-29 11:16:00,
2017-05-29 04:21:00,69.6,26.8,29.68,NE,37,0.0,0.0,20,0.00,,CLR,0.00,0.00,VWS V14.00,2017-05-29 11:21:00,
2017-05-29 04:26:00,69.8,27.0,29.68,NE,37,0.0,2.0,20,0.00,,CLR,0.00,0.00,VWS V14.00,2017-05-29 11:26:00,
2017-05-29 04:31:00,69.9,25.8,29.68,NE,37,0.0,2.0,19,0.00,,CLR,0.00,0.00,VWS V14.00,2017-05-29 11:31:00,
2017-05-29 04:36:00,69.9,25.8,29.68,NE,37,0.0,0.0,19,0.00,,CLR,0.00,0.00,VWS V14.00,2017-05-29 11:36:00,
2017-05-29 04:41:00,70.1,24.7,29.68,NE,37,0.0,0.0,18,0.00,,CLR,0.00,0.00,VWS V14.00,2017-05-29 11:41:00,
2017-05-29 04:46:00,68.9,26.2,29.68,NE,37,0.0,0.0,20,0.00,,CLR,0.00,0.00,VWS V14.00,2017-05-29 11:46:00,
2017-05-29 04:51:00,68.9,28.5,29.68,NE,37,0.0,0.0,22,0.00,,CLR,0.00,0.00,VWS V14.00,2017-05-29 11:51:00,
2017-05-29 04:56:00,67.9,29.8,29.68,NE,37,0.0,0.0,24,0.00,,CLR,0.00,0.00,VWS V14.00,2017-05-29 11:56:00,
2017-05-29 05:01:00,67.9,29.8,29.68,NE,37,0.0,0.0,24,0.00,,CLR,0.00,0.00,VWS V14.00,2017-05-29 12:01:00,
2017-05-29 05:06:00,67.8,30.7,29.68,NE,38,0.0,0.0,25,0.00,,CLR,0.00,0.00,VWS V14.00,2017-05-29 12:06:00,
2017-05-29 05:11:00,67.8,29.7,29.68,NE,38,0.0,0.0,24,0.00,,CLR,0.00,0.00,VWS V14.00,2017-05-29 12:11:00,
2017-05-29 05:16:00,67.6,30.6,29.68,NE,38,0.0,0.0,25,0.00,,CLR,0.00,0.00,VWS V14.00,2017-05-29 12:16:00,
2017-05-29 05:21:00,67.9,28.8,29.68,NE,38,0.0,0.0,23,0.00,,CLR,0.00,5.00,VWS V14.00,2017-05-29 12:21:00,
2017-05-29 05:27:00,67.8,29.7,29.68,NE,38,0.0,0.0,24,0.00,,CLR,0.00,9.00,VWS V14.00,2017-05-29 12:27:00,
2017-05-29 05:31:00,67.3,27.2,29.68,NE,38,2.0,2.0,22,0.00,,CLR,0.00,12.00,VWS V14.00,2017-05-29 12:31:00,
2017-05-29 05:36:00,68.1,27.9,29.69,NE,38,0.0,0.0,22,0.00,,CLR,0.00,14.00,VWS V14.00,2017-05-29 12:36:00,
2017-05-29 05:42:00,68.4,28.1,29.69,NE,38,0.0,0.0,22,0.00,,CLR,0.00,18.00,VWS V14.00,2017-05-29 12:42:00,
2017-05-29 05:46:00,68.6,28.3,29.70,NE,38,1.0,1.0,22,0.00,,CLR,0.00,21.00,VWS V14.00,2017-05-29 12:46:00,
2017-05-29 05:51:00,69.3,26.5,29.70,NE,38,0.0,0.0,20,0.00,,CLR,0.00,23.00,VWS V14.00,2017-05-29 12:51:00,
2017-05-29 05:56:00,70.1,27.2,29.70,NE,38,0.0,0.0,20,0.00,,CLR,0.00,35.00,VWS V14.00,2017-05-29 12:56:00,
2017-05-29 06:02:00,70.1,26.0,29.70,NE,38,0.0,0.0,19,0.00,,CLR,0.00,77.00,VWS V14.00,2017-05-29 13:02:00,
2017-05-29 06:07:00,70.4,24.9,29.70,NE,38,0.0,0.0,18,0.00,,CLR,0.00,86.00,VWS V14.00,2017-05-29 13:07:00,
2017-05-29 06:12:00,70.1,28.4,29.70,NE,38,0.0,0.0,21,0.00,,CLR,0.00,40.00,VWS V14.00,2017-05-29 13:12:00,
2017-05-29 06:17:00,70.6,26.4,29.70,NE,38,0.0,0.0,19,0.00,,CLR,0.00,30.00,VWS V14.00,2017-05-29 13:17:00,
2017-05-29 06:22:00,70.8,29.0,29.70,NE,38,0.0,0.0,21,0.00,,CLR,0.00,32.00,VWS V14.00,2017-05-29 13:22:00,
2017-05-29 06:27:00,70.6,28.8,29.70,NE,38,0.0,0.0,21,0.00,,CLR,0.00,33.00,VWS V14.00,2017-05-29 13:27:00,
2017-05-29 06:32:00,70.9,30.2,29.70,NE,38,0.0,0.0,22,0.00,,CLR,0.00,35.00,VWS V14.00,2017-05-29 13:32:00,
2017-05-29 06:37:00,71.3,30.5,29.70,NE,38,0.0,0.0,22,0.00,,CLR,0.00,35.00,VWS V14.00,2017-05-29 13:37:00,
2017-05-29 06:42:00,71.3,31.6,29.70,NE,38,0.0,0.0,23,0.00,,CLR,0.00,35.00,VWS V14.00,2017-05-29 13:42:00,
2017-05-29 06:47:00,70.6,32.1,29.71,NE,38,0.0,0.0,24,0.00,,CLR,0.00,37.00,VWS V14.00,2017-05-29 13:47:00,
2017-05-29 06:48:00,70.6,32.1,29.71,NE,38,0.0,0.0,24,0.00,,CLR,0.00,39.00,VWS V14.00,2017-05-29 13:48:00,
2017-05-29 06:53:00,70.8,34.2,29.71,NE,38,0.0,0.0,26,0.00,,CLR,0.00,40.00,VWS V14.00,2017-05-29 13:53:00,
2017-05-29 06:58:00,71.3,33.7,29.71,NE,52,0.0,0.0,25,0.00,,CLR,0.00,42.00,VWS V14.00,2017-05-29 13:58:00,
2017-05-29 07:03:00,72.0,34.3,29.71,NE,52,0.0,0.0,25,0.00,,CLR,0.00,46.00,VWS V14.00,2017-05-29 14:03:00,
2017-05-29 07:08:00,72.7,31.7,29.71,NE,52,0.0,0.0,22,0.00,,CLR,0.00,128.00,VWS V14.00,2017-05-29 14:08:00,
2017-05-29 07:13:00,73.0,34.1,29.71,NE,52,0.0,0.0,24,0.00,,CLR,0.00,272.00,VWS V14.00,2017-05-29 14:13:00,
2017-05-29 07:18:00,74.0,31.6,29.71,NE,52,0.0,0.0,21,0.00,,CLR,0.00,316.00,VWS V14.00,2017-05-29 14:18:00,
2017-05-29 07:23:00,75.3,31.5,29.71,NE,52,0.0,0.0,20,0.00,,CLR,0.00,332.00,VWS V14.00,2017-05-29 14:23:00,
2017-05-29 07:28:00,76.5,31.2,29.71,NE,52,0.0,0.0,19,0.00,,CLR,0.00,352.00,VWS V14.00,2017-05-29 14:28:00,
2017-05-29 07:33:00,77.4,30.6,29.71,NE,52,0.0,0.0,18,0.00,,CLR,0.00,367.00,VWS V14.00,2017-05-29 14:33:00,
2017-05-29 07:38:00,78.6,27.1,29.71,NE,52,0.0,0.0,15,0.00,,CLR,0.00,381.00,VWS V14.00,2017-05-29 14:38:00,
2017-05-29 07:43:00,79.2,29.2,29.71,NE,52,0.0,0.0,16,0.00,,CLR,0.00,401.00,VWS V14.00,2017-05-29 14:43:00,
2017-05-29 07:48:00,79.8,29.7,29.71,NE,52,0.0,0.0,16,0.00,,CLR,0.00,418.00,VWS V14.00,2017-05-29 14:48:00,
2017-05-29 07:53:00,79.9,28.2,29.71,NE,52,0.0,0.0,15,0.00,,CLR,0.00,436.00,VWS V14.00,2017-05-29 14:53:00,
2017-05-29 07:58:00,80.5,28.6,29.71,NE,52,0.0,0.0,15,0.00,,CLR,0.00,454.00,VWS V14.00,2017-05-29 14:58:00,
2017-05-29 08:03:00,81.2,29.2,29.71,NE,52,0.0,0.0,15,0.00,,CLR,0.00,469.00,VWS V14.00,2017-05-29 15:03:00,
2017-05-29 08:08:00,82.0,26.4,29.71,NE,52,0.0,0.0,13,0.00,,CLR,0.00,487.00,VWS V14.00,2017-05-29 15:08:00,
2017-05-29 08:13:00,82.2,28.3,29.71,NE,52,0.0,0.0,14,0.00,,CLR,0.00,504.00,VWS V14.00,2017-05-29 15:13:00,
2017-05-29 08:18:00,82.2,30.0,29.72,NE,51,0.0,1.0,15,0.00,,CLR,0.00,519.00,VWS V14.00,2017-05-29 15:18:00,
2017-05-29 08:23:00,83.4,29.3,29.72,NE,51,0.0,0.0,14,0.00,,CLR,0.00,536.00,VWS V14.00,2017-05-29 15:23:00,
2017-05-29 08:28:00,84.7,30.3,29.72,NE,51,1.0,2.0,14,0.00,,CLR,0.00,552.00,VWS V14.00,2017-05-29 15:28:00,
2017-05-29 08:33:00,85.5,30.9,29.71,NE,51,0.0,0.0,14,0.00,,CLR,0.00,570.00,VWS V14.00,2017-05-29 15:33:00,
2017-05-29 08:38:00,86.3,29.7,29.71,NE,51,0.0,1.0,13,0.00,,CLR,0.00,585.00,VWS V14.00,2017-05-29 15:38:00,
2017-05-29 08:43:00,87.0,30.3,29.71,NE,51,0.0,0.0,13,0.00,,CLR,0.00,599.00,VWS V14.00,2017-05-29 15:43:00,
2017-05-29 08:48:00,88.0,31.0,29.71,NE,51,1.0,4.0,13,0.00,,CLR,0.00,617.00,VWS V14.00,2017-05-29 15:48:00,
2017-05-29 08:53:00,89.7,28.3,29.71,SSE,153,1.0,7.0,11,0.00,,CLR,0.00,629.00,VWS V14.00,2017-05-29 15:53:00,
2017-05-29 08:58:00,90.3,28.7,29.71,ENE,64,4.0,6.0,11,0.00,,CLR,0.00,645.00,VWS V14.00,2017-05-29 15:58:00,
2017-05-29 09:03:00,90.3,28.7,29.70,NE,52,0.0,6.0,11,0.00,,CLR,0.00,659.00,VWS V14.00,2017-05-29 16:03:00,
2017-05-29 09:08:00,91.0,29.3,29.70,NE,47,0.0,3.0,11,0.00,,CLR,0.00,673.00,VWS V14.00,2017-05-29 16:08:00,
2017-05-29 09:13:00,92.1,27.8,29.70,ESE,110,2.0,4.0,10,0.00,,CLR,0.00,689.00,VWS V14.00,2017-05-29 16:13:00,
2017-05-29 09:18:00,92.5,28.1,29.71,SSW,199,0.0,2.0,10,0.00,,CLR,0.00,703.00,VWS V14.00,2017-05-29 16:18:00,
2017-05-29 09:23:00,91.0,31.4,29.71,NNW,335,1.0,3.0,12,0.00,,CLR,0.00,719.00,VWS V14.00,2017-05-29 16:23:00,
2017-05-29 09:28:00,90.7,31.2,29.71,West,275,0.0,2.0,12,0.00,,CLR,0.00,729.00,VWS V14.00,2017-05-29 16:28:00,
2017-05-29 09:33:00,92.3,27.9,29.70,West,270,1.0,2.0,10,0.00,,CLR,0.00,744.00,VWS V14.00,2017-05-29 16:33:00,
2017-05-29 09:38:00,93.6,28.9,29.70,NNW,333,1.0,1.0,10,0.00,,CLR,0.00,758.00,VWS V14.00,2017-05-29 16:38:00,
2017-05-29 09:43:00,94.3,26.9,29.70,SE,144,7.0,7.0,9,0.00,,CLR,0.00,772.00,VWS V14.00,2017-05-29 16:43:00,
2017-05-29 09:48:00,94.7,27.2,29.70,East,92,3.0,7.0,9,0.00,,CLR,0.00,784.00,VWS V14.00,2017-05-29 16:48:00,
2017-05-29 09:53:00,95.1,24.6,29.70,SSE,162,6.0,14.0,8,0.00,,CLR,0.00,796.00,VWS V14.00,2017-05-29 16:53:00,
2017-05-29 09:58:00,95.4,27.7,29.70,SE,125,3.0,7.0,9,0.00,,CLR,0.00,809.00,VWS V14.00,2017-05-29 16:58:00,
2017-05-29 10:03:00,95.6,25.0,29.70,SSE,158,0.0,4.0,8,0.00,,CLR,0.00,819.00,VWS V14.00,2017-05-29 17:03:00,
2017-05-29 10:13:00,95.9,25.2,29.70,SSE,157,1.0,9.0,8,0.00,,CLR,0.00,844.00,VWS V14.00,2017-05-29 17:13:00,
2017-05-29 10:18:00,96.3,25.5,29.70,SE,132,5.0,6.0,8,0.00,,CLR,0.00,854.00,VWS V14.00,2017-05-29 17:18:00,
2017-05-29 10:23:00,97.1,26.1,29.70,SE,142,5.0,9.0,8,0.00,,CLR,0.00,867.00,VWS V14.00,2017-05-29 17:23:00,
2017-05-29 10:28:00,97.8,26.6,29.70,SSE,154,6.0,11.0,8,0.00,,CLR,0.00,870.00,VWS V14.00,2017-05-29 17:28:00,
2017-05-29 10:33:00,97.3,26.2,29.70,South,173,1.0,4.0,8,0.00,,CLR,0.00,891.00,VWS V14.00,2017-05-29 17:33:00,
2017-05-29 10:38:00,96.6,25.7,29.70,SE,129,7.0,9.0,8,0.00,,CLR,0.00,896.00,VWS V14.00,2017-05-29 17:38:00,
2017-05-29 10:43:00,97.5,26.4,29.70,South,186,12.0,12.0,8,0.00,,CLR,0.00,907.00,VWS V14.00,2017-05-29 17:43:00,
2017-05-29 10:48:00,98.0,23.6,29.70,South,187,0.0,11.0,7,0.00,,CLR,0.00,918.00,VWS V14.00,2017-05-29 17:48:00,
2017-05-29 10:53:00,97.3,23.1,29.70,South,173,9.0,11.0,7,0.00,,CLR,0.00,926.00,VWS V14.00,2017-05-29 17:53:00,
2017-05-29 10:58:00,98.7,24.1,29.70,SSE,154,4.0,7.0,7,0.00,,CLR,0.00,933.00,VWS V14.00,2017-05-29 17:58:00,
2017-05-29 11:03:00,98.5,23.9,29.70,SE,145,9.0,10.0,7,0.00,,CLR,0.00,914.00,VWS V14.00,2017-05-29 18:03:00,
2017-05-29 11:08:00,98.2,23.7,29.70,SSE,151,2.0,10.0,7,0.00,,CLR,0.00,937.00,VWS V14.00,2017-05-29 18:08:00,
2017-05-29 11:13:00,99.2,20.8,29.70,SSE,156,7.0,9.0,6,0.00,,CLR,0.00,914.00,VWS V14.00,2017-05-29 18:13:00,
2017-05-29 11:18:00,99.0,24.3,29.70,SSW,209,9.0,11.0,7,0.00,,CLR,0.00,942.00,VWS V14.00,2017-05-29 18:18:00,
2017-05-29 11:23:00,99.4,24.6,29.70,South,176,1.0,7.0,7,0.00,,CLR,0.00,967.00,VWS V14.00,2017-05-29 18:23:00,
2017-05-29 11:28:00,99.2,24.4,29.70,SSE,148,8.0,11.0,7,0.00,,CLR,0.00,965.00,VWS V14.00,2017-05-29 18:28:00,
2017-05-29 11:33:00,99.7,24.8,29.69,South,173,3.0,10.0,7,0.00,,CLR,0.00,981.00,VWS V14.00,2017-05-29 18:33:00,
2017-05-29 11:38:00,99.7,24.8,29.69,South,177,1.0,4.0,7,0.00,,CLR,0.00,983.00,VWS V14.00,2017-05-29 18:38:00,
2017-05-29 11:43:00,100.7,21.8,29.69,South,171,4.0,7.0,6,0.00,,CLR,0.00,1002.00,VWS V14.00,2017-05-29 18:43:00,
2017-05-29 11:48:00,101.0,22.1,29.68,South,189,0.0,8.0,6,0.00,,CLR,0.00,1013.00,VWS V14.00,2017-05-29 18:48:00,
2017-05-29 11:53:00,101.0,22.1,29.68,South,171,4.0,11.0,6,0.00,,CLR,0.00,1018.00,VWS V14.00,2017-05-29 18:53:00,
2017-05-29 11:58:00,100.2,21.5,29.68,SSW,208,1.0,7.0,6,0.00,,CLR,0.00,991.00,VWS V14.00,2017-05-29 18:58:00,
2017-05-29 12:03:00,100.7,21.8,29.68,SSW,196,2.0,5.0,6,0.00,,CLR,0.00,877.00,VWS V14.00,2017-05-29 19:03:00,
2017-05-29 12:08:00,100.4,25.3,29.68,South,177,0.0,2.0,7,0.00,,CLR,0.00,1004.00,VWS V14.00,2017-05-29 19:08:00,
2017-05-29 12:13:00,101.0,22.1,29.68,SSE,160,0.0,9.0,6,0.00,,CLR,0.00,963.00,VWS V14.00,2017-05-29 19:13:00,
2017-05-29 12:18:00,101.2,22.2,29.68,South,183,7.0,11.0,6,0.00,,CLR,0.00,990.00,VWS V14.00,2017-05-29 19:18:00,
2017-05-29 12:23:00,102.3,23.0,29.68,SSE,151,1.0,5.0,6,0.00,,CLR,0.00,954.00,VWS V14.00,2017-05-29 19:23:00,
2017-05-29 12:28:00,102.0,22.8,29.68,WSW,257,0.0,7.0,6,0.00,,CLR,0.00,1009.00,VWS V14.00,2017-05-29 19:28:00,
2017-05-29 12:33:00,102.5,18.8,29.67,West,270,2.0,6.0,5,0.00,,CLR,0.00,1018.00,VWS V14.00,2017-05-29 19:33:00,
2017-05-29 12:38:00,102.3,18.7,29.67,West,261,4.0,11.0,5,0.00,,CLR,0.00,1048.00,VWS V14.00,2017-05-29 19:38:00,
2017-05-29 12:43:00,100.7,17.6,29.67,West,270,4.0,9.0,5,0.00,,CLR,0.00,1039.00,VWS V14.00,2017-05-29 19:43:00,
2017-05-29 12:48:00,101.0,17.8,29.67,West,270,1.0,6.0,5,0.00,,CLR,0.00,1025.00,VWS V14.00,2017-05-29 19:48:00,
2017-05-29 12:53:00,101.7,18.3,29.67,West,265,0.0,8.0,5,0.00,,CLR,0.00,1002.00,VWS V14.00,2017-05-29 19:53:00,
2017-05-29 12:58:00,101.0,17.8,29.67,West,270,2.0,11.0,5,0.00,,CLR,0.00,976.00,VWS V14.00,2017-05-29 19:58:00,
2017-05-29 13:03:00,102.0,18.5,29.67,SE,146,2.0,7.0,5,0.00,,CLR,0.00,942.00,VWS V14.00,2017-05-29 20:03:00,
2017-05-29 13:08:00,102.5,18.8,29.67,South,184,1.0,4.0,5,0.00,,CLR,0.00,1065.00,VWS V14.00,2017-05-29 20:08:00,
2017-05-29 13:13:00,103.3,19.4,29.67,SE,126,0.0,4.0,5,0.00,,CLR,0.00,784.00,VWS V14.00,2017-05-29 20:13:00,
2017-05-29 13:18:00,103.1,19.2,29.65,SSW,202,3.0,5.0,5,0.00,,CLR,0.00,745.00,VWS V14.00,2017-05-29 20:18:00,
2017-05-29 13:23:00,101.7,18.3,29.65,WSW,246,2.0,7.0,5,0.00,,CLR,0.00,656.00,VWS V14.00,2017-05-29 20:23:00,
2017-05-29 13:28:00,101.2,17.9,29.65,SSW,208,4.0,6.0,5,0.00,,CLR,0.00,1058.00,VWS V14.00,2017-05-29 20:28:00,
2017-05-29 13:33:00,103.6,19.6,29.65,WNW,283,3.0,6.0,5,0.00,,CLR,0.00,1004.00,VWS V14.00,2017-05-29 20:33:00,
2017-05-29 13:38:00,103.8,19.7,29.65,North,11,1.0,2.0,5,0.00,,CLR,0.00,1037.00,VWS V14.00,2017-05-29 20:38:00,
2017-05-29 13:43:00,103.6,14.4,29.65,WNW,294,1.0,3.0,4,0.00,,CLR,0.00,983.00,VWS V14.00,2017-05-29 20:43:00,
2017-05-29 13:48:00,104.1,14.8,29.64,SSE,154,2.0,11.0,4,0.00,,CLR,0.00,979.00,VWS V14.00,2017-05-29 20:48:00,
2017-05-29 13:53:00,103.8,14.6,29.64,South,181,0.0,3.0,4,0.00,,CLR,0.00,1000.00,VWS V14.00,2017-05-29 20:53:00,
2017-05-29 13:58:00,104.4,15.0,29.64,ESE,112,0.0,2.0,4,0.00,,CLR,0.00,960.00,VWS V14.00,2017-05-29 20:58:00,
2017-05-29 14:05:00,103.1,14.1,29.64,WSW,256,3.0,9.0,4,0.00,,CLR,0.00,902.00,VWS V14.00,2017-05-29 21:05:00,
2017-05-29 14:10:00,102.5,18.8,29.64,WNW,293,1.0,5.0,5,0.00,,CLR,0.00,800.00,VWS V14.00,2017-05-29 21:10:00,
2017-05-29 14:15:00,103.1,14.1,29.64,NE,44,4.0,5.0,4,0.00,,CLR,0.00,1004.00,VWS V14.00,2017-05-29 21:15:00,
2017-05-29 14:20:00,103.6,14.4,29.63,NNW,329,7.0,7.0,4,0.00,,CLR,0.00,905.00,VWS V14.00,2017-05-29 21:20:00,
2017-05-29 14:25:00,105.1,15.5,29.63,SW,227,1.0,6.0,4,0.00,,CLR,0.00,824.00,VWS V14.00,2017-05-29 21:25:00,
2017-05-29 14:30:00,104.6,15.1,29.63,West,265,11.0,15.0,4,0.00,,CLR,0.00,752.00,VWS V14.00,2017-05-29 21:30:00,
2017-05-29 14:35:00,103.8,14.6,29.63,WNW,285,5.0,10.0,4,0.00,,CLR,0.00,879.00,VWS V14.00,2017-05-29 21:35:00,
2017-05-29 14:40:00,103.1,14.1,29.63,WNW,294,5.0,6.0,4,0.00,,CLR,0.00,742.00,VWS V14.00,2017-05-29 21:40:00,
2017-05-29 14:45:00,103.3,14.2,29.63,WNW,299,5.0,9.0,4,0.00,,CLR,0.00,664.00,VWS V14.00,2017-05-29 21:45:00,
2017-05-29 14:50:00,102.5,13.7,29.62,West,270,4.0,6.0,4,0.00,,CLR,0.00,629.00,VWS V14.00,2017-05-29 21:50:00,
2017-05-29 14:55:00,102.0,13.4,29.62,WSW,256,3.0,7.0,4,0.00,,CLR,0.00,531.00,VWS V14.00,2017-05-29 21:55:00,
2017-05-29 15:00:00,102.5,13.7,29.62,WNW,285,5.0,7.0,4,0.00,,CLR,0.00,649.00,VWS V14.00,2017-05-29 22:00:00,
2017-05-29 15:05:00,101.5,18.1,29.62,WNW,292,2.0,6.0,5,0.00,,CLR,0.00,450.00,VWS V14.00,2017-05-29 22:05:00,
2017-05-29 15:10:00,102.3,18.7,29.62,NW,305,2.0,4.0,5,0.00,,CLR,0.00,487.00,VWS V14.00,2017-05-29 22:10:00,
2017-05-29 15:15:00,102.0,18.5,29.62,SW,230,13.0,13.0,5,0.00,,CLR,0.00,534.00,VWS V14.00,2017-05-29 22:15:00,
2017-05-29 15:20:00,101.0,17.8,29.63,WSW,243,0.0,7.0,5,0.00,,CLR,0.00,710.00,VWS V14.00,2017-05-29 22:20:00,
2017-05-29 15:25:00,101.7,18.3,29.63,West,260,2.0,3.0,5,0.00,,CLR,0.00,837.00,VWS V14.00,2017-05-29 22:25:00,